Airport View

Enter AWOS ICAO identifier for current METAR.

ex. KFNL

KTYL 031545Z AUTO 28008KT 10SM 24/07 A3031 RMK AO2

3 Jul 2020 15:48

Frequency: 119.075

Phone: 928-536-2609

Other Area AWOS: KSOW - KSJN - KJTC - KINW

TAF KINW 031129Z 0312/0412 VRB05KT P6SM BKN110 FM032100 27011KT P6SM SCT110 PROB30 0322/0402 VRB15G25KT -TSRA BKN080CB FM040200 24010KT P6SM SCT080